createdAt,value
2018-06-15T00:00:11.815Z,4.00
2018-06-15T00:02:40.074Z,4.60
2018-06-15T00:05:08.369Z,4.80
2018-06-15T00:07:36.621Z,5.40
2018-06-15T00:10:04.933Z,4.00
2018-06-15T00:12:33.192Z,4.60
2018-06-15T00:15:01.475Z,4.80
2018-06-15T00:17:29.747Z,5.00
2018-06-15T00:19:58.025Z,4.20
2018-06-15T00:22:26.276Z,5.60
2018-06-15T00:24:54.576Z,4.60
2018-06-15T00:27:22.868Z,3.60
2018-06-15T00:29:51.137Z,5.00
2018-06-15T00:32:19.401Z,4.00
2018-06-15T00:34:47.677Z,4.00
2018-06-15T00:37:15.942Z,5.00
2018-06-15T00:39:44.248Z,5.00
2018-06-15T00:42:12.497Z,4.80
2018-06-15T00:44:40.774Z,5.00
2018-06-15T00:47:09.057Z,4.00
2018-06-15T00:49:37.378Z,4.80
2018-06-15T00:52:05.780Z,4.80
2018-06-15T00:54:34.077Z,4.60
2018-06-15T00:57:13.707Z,6.40
2018-06-15T00:59:42.078Z,5.00
2018-06-15T01:02:10.401Z,5.20
2018-06-15T01:04:38.649Z,5.60
2018-06-15T01:07:06.978Z,5.00
2018-06-15T01:09:35.206Z,4.20
2018-06-15T01:12:03.480Z,5.00
2018-06-15T01:14:31.772Z,4.80
2018-06-15T01:17:00.049Z,4.80
2018-06-15T01:19:28.341Z,5.00
2018-06-15T01:21:56.606Z,5.00
2018-06-15T01:24:24.861Z,7.20
2018-06-15T01:26:53.313Z,6.60
2018-06-15T01:29:21.649Z,5.00
2018-06-15T01:31:49.915Z,5.00
2018-06-15T01:34:18.188Z,5.80
2018-06-15T01:36:46.469Z,4.80
2018-06-15T01:39:14.735Z,4.80
2018-06-15T01:41:43.018Z,4.40
2018-06-15T01:44:11.277Z,6.20
2018-06-15T01:46:39.602Z,5.00
2018-06-15T01:49:07.898Z,2.40
2018-06-15T01:51:36.161Z,5.60
2018-06-15T01:54:04.402Z,5.40
2018-06-15T01:56:32.688Z,4.80
2018-06-15T01:59:00.949Z,7.00
2018-06-15T02:01:29.334Z,5.20
2018-06-15T02:03:57.562Z,4.80
2018-06-15T02:06:25.809Z,5.80
2018-06-15T02:08:54.101Z,6.20
2018-06-15T02:11:23.829Z,5.40
2018-06-15T02:13:52.094Z,6.00
2018-06-15T02:16:20.382Z,8.00
2018-06-15T02:18:48.654Z,5.80
2018-06-15T02:21:16.942Z,5.00
2018-06-15T02:23:45.221Z,7.80
2018-06-15T02:26:13.498Z,6.20
2018-06-15T02:28:41.789Z,8.00
2018-06-15T02:31:10.050Z,5.60
2018-06-15T02:33:38.339Z,7.20
2018-06-15T02:36:06.585Z,6.00
2018-06-15T02:38:34.890Z,6.20
2018-06-15T02:41:03.146Z,6.60
2018-06-15T02:43:31.448Z,7.40
2018-06-15T02:45:59.714Z,6.20
2018-06-15T02:48:27.961Z,5.80
2018-06-15T02:50:56.253Z,5.00
2018-06-15T02:53:24.518Z,5.60
2018-06-15T02:55:52.830Z,5.00
2018-06-15T02:58:21.073Z,6.00
2018-06-15T03:00:49.350Z,6.00
2018-06-15T03:03:17.642Z,5.00
2018-06-15T03:05:45.907Z,6.20
2018-06-15T03:08:14.206Z,6.20
2018-06-15T03:10:42.483Z,6.20
2018-06-15T03:13:10.754Z,5.60
2018-06-15T03:15:39.011Z,5.00
2018-06-15T03:18:07.298Z,5.60
2018-06-15T03:20:35.590Z,5.20
2018-06-15T03:23:03.865Z,6.60
2018-06-15T03:25:32.117Z,4.60
2018-06-15T03:28:00.438Z,5.20
2018-06-15T03:30:28.870Z,5.00
2018-06-15T03:32:57.181Z,5.80
2018-06-15T03:35:25.449Z,7.80
2018-06-15T03:37:53.722Z,6.20
2018-06-15T03:40:21.999Z,8.00
2018-06-15T03:42:50.250Z,6.20
2018-06-15T03:45:18.557Z,5.40
2018-06-15T03:47:46.802Z,5.00
2018-06-15T03:50:15.130Z,6.40
2018-06-15T03:52:43.382Z,7.00
2018-06-15T03:55:11.769Z,5.00
2018-06-15T03:57:40.118Z,6.60
2018-06-15T04:00:08.405Z,5.80
2018-06-15T04:02:36.661Z,5.40
2018-06-15T04:05:04.992Z,5.80
2018-06-15T04:07:33.246Z,7.00
2018-06-15T04:10:01.621Z,5.60
2018-06-15T04:12:30.009Z,7.00
2018-06-15T04:14:58.265Z,7.00
2018-06-15T04:17:26.554Z,5.00
2018-06-15T04:19:54.810Z,5.00
2018-06-15T04:22:23.110Z,7.00
2018-06-15T04:24:51.369Z,5.20
2018-06-15T04:27:19.662Z,5.40
2018-06-15T04:29:47.914Z,6.00
2018-06-15T04:32:16.218Z,7.00
2018-06-15T04:34:44.463Z,6.20
2018-06-15T04:37:12.749Z,5.80
2018-06-15T04:39:41.038Z,6.20
2018-06-15T04:42:09.310Z,6.20
2018-06-15T04:44:37.585Z,7.00
2018-06-15T04:47:06.166Z,5.20
2018-06-15T04:49:34.562Z,7.00
2018-06-15T04:52:02.822Z,6.20
2018-06-15T04:54:31.221Z,7.60
2018-06-15T04:56:59.589Z,6.20
2018-06-15T04:59:28.087Z,5.80
2018-06-15T05:01:56.326Z,7.80
2018-06-15T05:04:24.621Z,5.20
2018-06-15T05:06:52.886Z,8.40
2018-06-15T05:09:21.161Z,6.20
2018-06-15T05:11:49.466Z,7.00
2018-06-15T05:14:17.729Z,4.60
2018-06-15T05:16:45.981Z,7.80
2018-06-15T05:19:14.277Z,6.60
2018-06-15T05:21:42.565Z,7.00
2018-06-15T05:24:10.833Z,5.40
2018-06-15T05:26:39.118Z,7.20
2018-06-15T05:29:07.389Z,6.20
2018-06-15T05:31:35.653Z,5.40
2018-06-15T05:34:03.926Z,5.80
2018-06-15T05:36:32.220Z,5.20
2018-06-15T05:39:00.474Z,7.00
2018-06-15T05:41:28.777Z,5.20
2018-06-15T05:43:57.029Z,5.80
2018-06-15T05:46:25.330Z,5.00
2018-06-15T05:48:53.886Z,6.60
2018-06-15T05:51:22.299Z,5.00
2018-06-15T05:53:50.570Z,5.80
2018-06-15T05:56:18.820Z,8.00
2018-06-15T05:58:47.106Z,7.00
2018-06-15T06:01:15.401Z,6.20
2018-06-15T06:03:43.650Z,6.20
2018-06-15T06:06:11.949Z,5.60
2018-06-15T06:08:40.194Z,5.40
2018-06-15T06:11:08.498Z,5.40
2018-06-15T06:13:36.755Z,8.20
2018-06-15T06:16:05.294Z,6.20
2018-06-15T06:18:33.717Z,7.80
2018-06-15T06:21:02.208Z,5.20
2018-06-15T06:23:30.494Z,6.40
2018-06-15T06:25:58.754Z,8.40
2018-06-15T06:28:27.051Z,7.40
2018-06-15T06:30:55.302Z,5.20
2018-06-15T06:33:23.609Z,8.00
2018-06-15T06:35:51.861Z,8.20
2018-06-15T06:38:20.158Z,6.80
2018-06-15T06:40:48.418Z,6.60
2018-06-15T06:43:16.719Z,8.00
2018-06-15T06:45:45.165Z,7.00
2018-06-15T06:48:13.405Z,7.60
2018-06-15T06:50:41.759Z,7.40
2018-06-15T06:53:09.994Z,6.20
2018-06-15T06:55:38.270Z,9.00
2018-06-15T06:58:06.576Z,11.80
2018-06-15T07:00:34.843Z,6.40
2018-06-15T07:03:03.129Z,8.20
2018-06-15T07:05:31.405Z,7.20
2018-06-15T07:07:59.673Z,11.00
2018-06-15T07:10:27.933Z,9.40
2018-06-15T07:12:56.260Z,8.60
2018-06-15T07:15:24.716Z,10.60
2018-06-15T07:17:52.973Z,11.80
2018-06-15T07:20:21.306Z,9.00
2018-06-15T07:22:49.747Z,9.20
2018-06-15T07:25:18.234Z,10.60
2018-06-15T07:27:46.606Z,10.60
2018-06-15T07:30:14.986Z,8.80
2018-06-15T07:32:43.249Z,10.60
2018-06-15T07:35:11.517Z,11.00
2018-06-15T07:37:39.814Z,11.40
2018-06-15T07:40:08.061Z,9.60
2018-06-15T07:42:36.378Z,10.20
2018-06-15T07:45:04.868Z,11.40
2018-06-15T07:47:33.335Z,11.20
2018-06-15T07:50:02.227Z,10.80
2018-06-15T07:52:30.527Z,11.00
2018-06-15T07:54:58.758Z,12.00
2018-06-15T07:57:27.054Z,9.20
2018-06-15T07:59:55.305Z,11.40
2018-06-15T08:02:23.858Z,9.20
2018-06-15T08:04:52.262Z,11.00
2018-06-15T08:07:20.549Z,12.00
2018-06-15T08:09:48.865Z,9.00
2018-06-15T08:12:17.317Z,11.20
2018-06-15T08:14:45.582Z,12.20
2018-06-15T08:17:14.499Z,8.80
2018-06-15T08:19:43.011Z,8.40
2018-06-15T08:22:11.450Z,11.40
2018-06-15T08:24:39.954Z,11.20
2018-06-15T08:27:08.210Z,8.00
2018-06-15T08:29:36.462Z,8.20
2018-06-15T08:32:04.757Z,10.40
2018-06-15T08:34:33.034Z,8.60
2018-06-15T08:37:01.290Z,9.40
2018-06-15T08:39:29.597Z,8.40
2018-06-15T08:41:57.841Z,10.60
2018-06-15T08:44:26.121Z,8.40
2018-06-15T08:46:54.418Z,9.00
2018-06-15T08:49:22.674Z,9.40
2018-06-15T08:51:51.005Z,9.00
2018-06-15T08:54:19.437Z,10.60
2018-06-15T08:56:47.706Z,8.20
2018-06-15T08:59:15.998Z,9.00
2018-06-15T09:01:44.280Z,9.60
2018-06-15T09:04:12.580Z,5.40
2018-06-15T09:06:41.037Z,7.20
2018-06-15T09:09:09.610Z,9.80
2018-06-15T09:11:38.109Z,8.80
2018-06-15T09:14:06.462Z,8.40
2018-06-15T09:16:34.749Z,8.00
2018-06-15T09:19:03.014Z,8.80
2018-06-15T09:21:31.306Z,8.60
2018-06-15T09:23:59.574Z,8.60
2018-06-15T09:26:27.867Z,7.80
2018-06-15T09:28:56.141Z,6.80
2018-06-15T09:31:24.405Z,9.00
2018-06-15T09:33:52.697Z,8.80
2018-06-15T09:36:20.954Z,8.60
2018-06-15T09:38:49.273Z,8.20
2018-06-15T09:41:17.810Z,10.60
2018-06-15T09:43:46.205Z,8.80
2018-06-15T09:46:14.468Z,7.20
2018-06-15T09:48:44.205Z,8.60
2018-06-15T09:51:13.586Z,8.80
2018-06-15T09:53:41.974Z,9.60
2018-06-15T09:56:10.226Z,8.60
2018-06-15T09:58:38.549Z,7.80
2018-06-15T10:01:10.178Z,9.20
2018-06-15T10:03:39.496Z,7.80
2018-06-15T10:06:07.847Z,11.00
2018-06-15T10:08:36.832Z,8.20
2018-06-15T10:11:05.665Z,7.00
2018-06-15T10:13:34.197Z,7.40
2018-06-15T10:16:02.584Z,8.00
2018-06-15T10:18:30.881Z,8.80
2018-06-15T10:20:59.136Z,8.80
2018-06-15T10:23:28.073Z,10.60
2018-06-15T10:25:56.620Z,8.00
2018-06-15T10:28:25.068Z,8.00
2018-06-15T10:30:53.501Z,7.80
2018-06-15T10:33:21.777Z,6.40
2018-06-15T10:35:50.062Z,8.00
2018-06-15T10:38:18.302Z,9.00
2018-06-15T10:40:46.599Z,8.80
2018-06-15T10:43:14.874Z,8.20
2018-06-15T10:45:43.406Z,7.00
2018-06-15T10:48:12.154Z,9.00
2018-06-15T10:50:40.822Z,9.20
2018-06-15T10:53:09.302Z,9.80
2018-06-15T10:55:37.673Z,8.60
2018-06-15T10:58:06.080Z,9.60
2018-06-15T11:00:34.440Z,8.40
2018-06-15T11:03:02.727Z,7.80
2018-06-15T11:05:30.986Z,8.60
2018-06-15T11:07:59.299Z,9.00
2018-06-15T11:10:27.554Z,6.60
2018-06-15T11:12:55.881Z,9.20
2018-06-15T11:15:24.289Z,9.00
2018-06-15T11:17:52.621Z,8.60
2018-06-15T11:20:21.062Z,9.40
2018-06-15T11:22:49.346Z,10.60
2018-06-15T11:25:17.622Z,8.00
2018-06-15T11:27:45.889Z,8.80
2018-06-15T11:30:14.174Z,11.40
2018-06-15T11:32:42.437Z,9.00
2018-06-15T11:35:10.717Z,10.20
2018-06-15T11:37:38.998Z,7.40
2018-06-15T11:40:07.293Z,9.20
2018-06-15T11:42:35.578Z,8.80
2018-06-15T11:45:04.018Z,8.20
2018-06-15T11:47:32.309Z,6.60
2018-06-15T11:50:00.561Z,8.20
2018-06-15T11:52:28.863Z,7.40
2018-06-15T11:54:57.138Z,9.40
2018-06-15T11:57:25.430Z,8.20
2018-06-15T11:59:56.219Z,9.00
2018-06-15T12:02:24.630Z,7.00
2018-06-15T12:04:52.897Z,6.60
2018-06-15T12:07:21.237Z,7.00
2018-06-15T12:09:49.681Z,7.40
2018-06-15T12:12:17.930Z,6.20
2018-06-15T12:14:46.203Z,8.00
2018-06-15T12:17:14.494Z,8.00
2018-06-15T12:19:42.779Z,6.60
2018-06-15T12:22:11.166Z,8.00
2018-06-15T12:24:39.513Z,9.00
2018-06-15T12:27:07.809Z,8.40
2018-06-15T12:29:36.121Z,10.60
2018-06-15T12:32:04.550Z,7.40
2018-06-15T12:34:32.844Z,8.20
2018-06-15T12:37:01.102Z,9.00
2018-06-15T12:39:29.394Z,8.40
2018-06-15T12:41:57.666Z,5.80
2018-06-15T12:44:26.213Z,10.20
2018-06-15T12:46:55.273Z,7.60
2018-06-15T12:49:23.733Z,8.60
2018-06-15T12:51:51.989Z,7.80
2018-06-15T12:54:20.289Z,8.40
2018-06-15T12:56:48.537Z,8.00
2018-06-15T12:59:16.914Z,8.00
2018-06-15T13:01:45.336Z,9.40
2018-06-15T13:04:13.566Z,7.60
2018-06-15T13:06:41.846Z,9.00
2018-06-15T13:09:11.091Z,8.40
2018-06-15T13:11:39.429Z,7.00
2018-06-15T13:14:07.762Z,7.60
2018-06-15T13:16:36.518Z,8.40
2018-06-15T13:19:05.017Z,8.20
2018-06-15T13:21:33.361Z,5.00
2018-06-15T13:24:01.632Z,9.60
2018-06-15T13:26:29.950Z,9.40
2018-06-15T13:28:58.402Z,8.60
2018-06-15T13:31:26.772Z,8.80
2018-06-15T13:33:55.317Z,9.40
2018-06-15T13:36:24.042Z,8.20
2018-06-15T13:38:52.322Z,9.00
2018-06-15T13:41:20.582Z,8.00
2018-06-15T13:43:48.877Z,8.20
2018-06-15T13:46:17.149Z,9.40
2018-06-15T13:48:45.443Z,9.80
2018-06-15T13:51:13.686Z,9.60
2018-06-15T13:53:41.966Z,9.60
2018-06-15T13:56:10.284Z,7.80
2018-06-15T13:58:38.511Z,6.60
2018-06-15T14:01:06.793Z,9.60
2018-06-15T14:03:35.094Z,8.80
2018-06-15T14:06:05.516Z,8.20
2018-06-15T14:08:35.327Z,8.20
2018-06-15T14:11:05.435Z,8.60
2018-06-15T14:13:35.414Z,8.80
2018-06-15T14:16:06.448Z,7.60
2018-06-15T14:18:36.190Z,5.60
2018-06-15T14:21:06.713Z,8.00
2018-06-15T14:23:36.739Z,8.40
2018-06-15T14:26:05.883Z,7.00
2018-06-15T14:28:34.879Z,8.00
2018-06-15T14:31:03.965Z,7.60
2018-06-15T14:33:32.843Z,8.40
2018-06-15T14:36:02.381Z,10.40
2018-06-15T14:38:31.482Z,9.00
2018-06-15T14:41:00.581Z,8.80
2018-06-15T14:43:29.453Z,7.80
2018-06-15T14:45:58.470Z,9.00
2018-06-15T14:48:27.445Z,8.20
2018-06-15T14:50:56.738Z,6.00
2018-06-15T14:53:26.302Z,6.00
2018-06-15T14:55:56.319Z,4.00
2018-06-15T14:58:26.170Z,8.20
2018-06-15T15:00:55.357Z,8.80
2018-06-15T15:03:24.702Z,8.60
2018-06-15T15:05:53.989Z,9.20
2018-06-15T15:08:22.439Z,9.00
2018-06-15T15:10:50.686Z,8.00
2018-06-15T15:13:18.980Z,9.60
2018-06-15T15:15:47.259Z,9.00
2018-06-15T15:18:15.552Z,8.20
2018-06-15T15:20:43.794Z,8.00
2018-06-15T15:23:12.146Z,9.00
2018-06-15T15:25:40.549Z,7.60
2018-06-15T15:28:08.826Z,8.20
2018-06-15T15:30:37.178Z,8.20
2018-06-15T15:33:05.601Z,8.20
2018-06-15T15:35:34.078Z,8.00
2018-06-15T15:38:02.390Z,6.40
2018-06-15T15:40:30.759Z,9.00
2018-06-15T15:42:59.010Z,8.20
2018-06-15T15:45:27.301Z,7.60
2018-06-15T15:47:55.593Z,8.00
2018-06-15T15:50:24.104Z,8.80
2018-06-15T15:52:52.609Z,7.40
2018-06-15T15:55:20.994Z,7.60
2018-06-15T15:57:49.292Z,8.00
2018-06-15T16:00:17.570Z,5.60
2018-06-15T16:02:46.568Z,9.20
2018-06-15T16:05:14.938Z,7.60
2018-06-15T16:07:43.194Z,8.00
2018-06-15T16:10:11.714Z,7.40
2018-06-15T16:12:40.099Z,6.40
2018-06-15T16:15:08.437Z,6.40
2018-06-15T16:17:36.709Z,7.80
2018-06-15T16:20:05.046Z,8.00
2018-06-15T16:22:33.466Z,8.00
2018-06-15T16:25:01.748Z,6.60
2018-06-15T16:27:30.039Z,7.80
2018-06-15T16:29:58.406Z,6.80
2018-06-15T16:32:26.816Z,8.00
2018-06-15T16:34:55.050Z,6.00
2018-06-15T16:37:23.442Z,8.00
2018-06-15T16:39:51.946Z,6.20
2018-06-15T16:42:20.285Z,5.80
2018-06-15T16:44:48.589Z,6.40
2018-06-15T16:47:16.874Z,7.60
2018-06-15T16:49:45.229Z,8.20
2018-06-15T16:52:13.637Z,6.00
2018-06-15T16:54:41.894Z,5.80
2018-06-15T16:57:10.160Z,6.00
2018-06-15T16:59:38.457Z,7.60
2018-06-15T17:02:06.779Z,6.20
2018-06-15T17:04:35.205Z,7.60
2018-06-15T17:07:03.474Z,5.60
2018-06-15T17:09:31.733Z,6.80
2018-06-15T17:12:00.094Z,6.20
2018-06-15T17:14:28.500Z,5.80
2018-06-15T17:16:56.787Z,6.40
2018-06-15T17:19:25.107Z,6.00
2018-06-15T17:21:53.317Z,6.20
2018-06-15T17:24:21.617Z,5.00
2018-06-15T17:26:49.878Z,7.60
2018-06-15T17:29:18.173Z,5.80
2018-06-15T17:31:46.425Z,5.80
2018-06-15T17:34:14.730Z,6.20
2018-06-15T17:36:45.862Z,6.40
2018-06-15T17:39:14.562Z,7.20
2018-06-15T17:41:43.865Z,4.00
2018-06-15T17:44:12.160Z,6.60
2018-06-15T17:46:40.394Z,8.00
2018-06-15T17:49:09.524Z,5.00
2018-06-15T17:51:37.794Z,6.00
2018-06-15T17:54:06.069Z,5.00
2018-06-15T17:56:34.318Z,6.00
2018-06-15T17:59:02.606Z,5.60
2018-06-15T18:01:30.897Z,6.20
2018-06-15T18:03:59.294Z,5.60
2018-06-15T18:06:27.637Z,6.00
2018-06-15T18:08:55.966Z,5.80
2018-06-15T18:11:24.224Z,5.60
2018-06-15T18:13:52.453Z,5.60
2018-06-15T18:16:20.731Z,4.80
2018-06-15T18:18:49.176Z,5.00
2018-06-15T18:21:17.486Z,6.00
2018-06-15T18:30:42.748Z,5.40
2018-06-15T18:33:11.118Z,6.40
2018-06-15T18:35:39.553Z,6.00
2018-06-15T18:38:08.265Z,5.80
2018-06-15T18:40:36.682Z,5.00
2018-06-15T18:43:04.958Z,5.40
2018-06-15T18:45:34.070Z,6.40
2018-06-15T18:48:02.772Z,5.80
2018-06-15T18:50:31.238Z,5.60
2018-06-15T18:52:59.538Z,8.00
2018-06-15T18:55:28.047Z,5.40
2018-06-15T18:57:56.473Z,4.20
2018-06-15T19:00:24.737Z,7.60
2018-06-15T19:02:53.069Z,6.80
2018-06-15T19:05:21.489Z,8.00
2018-06-15T19:07:49.777Z,7.60
2018-06-15T19:10:18.038Z,9.00
2018-06-15T19:12:46.375Z,6.80
2018-06-15T19:15:14.882Z,6.40
2018-06-15T19:17:43.513Z,8.00
2018-06-15T19:20:11.811Z,7.20
2018-06-15T19:22:40.241Z,6.00
2018-06-15T19:25:08.519Z,6.20
2018-06-15T19:27:36.847Z,6.20
2018-06-15T19:30:05.282Z,8.00
2018-06-15T19:32:33.786Z,6.60
2018-06-15T19:35:02.026Z,6.20
2018-06-15T19:37:33.290Z,8.00
2018-06-15T19:40:01.651Z,9.20
2018-06-15T19:42:29.966Z,8.00
2018-06-15T19:44:58.242Z,8.40
2018-06-15T19:47:28.488Z,9.20
2018-06-15T19:49:58.562Z,7.60
2018-06-15T19:52:29.927Z,6.20
2018-06-15T19:55:01.188Z,9.20
2018-06-15T19:57:31.523Z,6.80
2018-06-15T20:00:00.677Z,8.60
2018-06-15T20:02:30.406Z,9.00
2018-06-15T20:05:02.120Z,9.40
2018-06-15T20:07:31.400Z,8.00
2018-06-15T20:09:59.834Z,9.20
2018-06-15T20:12:30.626Z,2.40
2018-06-15T20:15:01.001Z,7.80
2018-06-15T20:17:29.317Z,8.00
2018-06-15T20:20:00.340Z,6.20
2018-06-15T20:22:33.057Z,6.00
2018-06-15T20:25:03.532Z,6.60
2018-06-15T20:27:34.123Z,8.40
2018-06-15T20:30:04.189Z,8.40
2018-06-15T20:32:34.644Z,8.40
2018-06-15T20:35:04.594Z,8.00
2018-06-15T20:37:35.784Z,7.00
2018-06-15T20:40:06.162Z,8.60
2018-06-15T20:42:40.154Z,8.20
2018-06-15T20:45:10.822Z,8.40
2018-06-15T20:47:39.990Z,6.20
2018-06-15T20:50:10.093Z,7.20
2018-06-15T20:52:41.894Z,8.60
2018-06-15T20:55:10.303Z,8.20
2018-06-15T20:57:42.273Z,5.60
2018-06-15T21:00:14.588Z,7.20
2018-06-15T21:02:48.413Z,9.40
2018-06-15T21:05:18.923Z,8.60
2018-06-15T21:07:48.432Z,8.60
2018-06-15T21:10:20.548Z,6.80
2018-06-15T21:12:51.499Z,5.80
2018-06-15T21:15:28.315Z,6.40
2018-06-15T21:18:02.228Z,9.00
2018-06-15T21:20:36.091Z,8.20
2018-06-15T21:23:05.868Z,3.60
2018-06-15T21:25:36.713Z,8.60
2018-06-15T21:28:05.692Z,6.20
2018-06-15T21:30:36.038Z,5.80
2018-06-15T21:33:05.074Z,6.80
2018-06-15T21:35:36.741Z,6.00
2018-06-15T21:38:07.641Z,6.00
2018-06-15T21:40:40.859Z,7.80
2018-06-15T21:43:13.456Z,7.60
2018-06-15T21:45:47.592Z,6.00
2018-06-15T21:48:18.389Z,5.60
2018-06-15T21:50:48.588Z,2.40
2018-06-15T21:53:17.852Z,7.60
2018-06-15T21:55:48.531Z,8.20
2018-06-15T21:58:17.305Z,4.80
2018-06-15T22:00:46.642Z,6.00
2018-06-15T22:03:19.912Z,6.40
2018-06-15T22:05:49.714Z,5.40
2018-06-15T22:08:22.679Z,8.00
2018-06-15T22:10:52.326Z,5.80
2018-06-15T22:13:26.848Z,5.20
2018-06-15T22:15:56.486Z,6.00
2018-06-15T22:18:29.240Z,5.60
2018-06-15T22:20:59.769Z,6.20
2018-06-15T22:23:30.853Z,5.60
2018-06-15T22:25:59.270Z,5.20
2018-06-15T22:28:27.877Z,7.20
2018-06-15T22:30:56.225Z,5.80
2018-06-15T22:33:24.813Z,6.00
2018-06-15T22:35:53.565Z,6.80
2018-06-15T22:38:22.525Z,7.60
2018-06-15T22:40:51.943Z,5.00
2018-06-15T22:43:20.762Z,8.00
2018-06-15T22:45:49.738Z,5.20
2018-06-15T22:48:18.690Z,6.80
2018-06-15T22:50:47.241Z,6.20
2018-06-15T22:53:15.769Z,5.40
2018-06-15T22:55:44.108Z,6.00
2018-06-15T22:58:13.768Z,7.80
2018-06-15T23:00:42.301Z,5.20
2018-06-15T23:03:10.807Z,5.60
2018-06-15T23:06:42.771Z,5.80
2018-06-15T23:09:12.940Z,4.60
2018-06-15T23:11:42.447Z,7.00
2018-06-15T23:14:11.217Z,7.20
2018-06-15T23:16:40.541Z,5.80
2018-06-15T23:19:08.984Z,5.80
2018-06-15T23:21:38.038Z,6.80
2018-06-15T23:24:06.801Z,6.80
2018-06-15T23:26:36.010Z,5.80
2018-06-15T23:29:05.032Z,5.00
2018-06-15T23:31:33.661Z,8.00
2018-06-15T23:34:02.719Z,6.20
2018-06-15T23:36:31.445Z,7.20
2018-06-15T23:39:00.106Z,6.20
2018-06-15T23:41:28.577Z,7.20
2018-06-15T23:43:57.350Z,6.80
2018-06-15T23:46:26.265Z,6.00
2018-06-15T23:48:55.806Z,6.00
2018-06-15T23:51:24.426Z,5.60
2018-06-15T23:53:53.086Z,6.20
2018-06-15T23:56:21.763Z,5.00
2018-06-15T23:58:50.174Z,5.40
